Time,TemperatureF,DewpointF,PressureIn,WindDirection,WindDirectionDegrees,WindSpeedMPH,WindSpeedGustMPH,Humidity,HourlyPrecipIn,Conditions,Clouds,dailyrainin,SoftwareType,DateUTC
2013-06-23 02:11:00,78.7,69.6,29.68,SE,135,0.4,0.4,73,0.00,,,0.00,WUHU216HW,2013-06-23 07:11:00,
2013-06-23 02:16:00,78.5,69.4,29.68,South,183,0.8,2.0,73,0.00,,,0.00,WUHU216HW,2013-06-23 07:16:00,
2013-06-23 02:21:00,78.3,69.1,29.67,South,179,1.1,2.0,73,0.00,,,0.00,WUHU216HW,2013-06-23 07:21:00,
2013-06-23 02:26:00,78.0,69.2,29.67,South,180,1.8,1.8,74,0.00,,,0.00,WUHU216HW,2013-06-23 07:26:00,
2013-06-23 02:31:00,77.9,69.6,29.67,West,267,1.5,2.2,75,0.00,,,0.00,WUHU216HW,2013-06-23 07:31:00,
2013-06-23 02:36:00,77.9,69.5,29.66,SSW,203,1.1,2.7,75,0.00,,,0.00,WUHU216HW,2013-06-23 07:36:00,
2013-06-23 02:41:00,77.8,69.5,29.66,SSE,158,2.0,2.9,75,0.00,,,0.00,WUHU216HW,2013-06-23 07:41:00,
2013-06-23 02:46:00,77.8,69.4,29.66,ESE,105,0.3,2.9,75,0.00,,,0.00,WUHU216HW,2013-06-23 07:46:00,
2013-06-23 02:51:00,77.5,69.6,29.66,SE,135,0.5,2.0,76,0.00,,,0.00,WUHU216HW,2013-06-23 07:51:00,
2013-06-23 02:56:00,77.3,69.3,29.66,SW,225,0.2,1.8,76,0.00,,,0.00,WUHU216HW,2013-06-23 07:56:00,
2013-06-23 03:01:00,76.9,68.9,29.66,ESE,104,0.2,1.1,76,0.00,,,0.00,WUHU216HW,2013-06-23 08:01:00,
2013-06-23 03:06:00,76.7,68.8,29.66,SSW,199,0.7,1.6,76,0.00,,,0.00,WUHU216HW,2013-06-23 08:06:00,
2013-06-23 03:11:00,76.6,68.7,29.66,SE,135,0.4,1.6,76,0.00,,,0.00,WUHU216HW,2013-06-23 08:11:00,
2013-06-23 03:16:00,76.4,68.8,29.66,SSE,154,0.4,0.9,77,0.00,,,0.00,WUHU216HW,2013-06-23 08:16:00,
2013-06-23 03:21:00,75.7,68.5,29.66,South,170,0.5,0.9,78,0.00,,,0.00,WUHU216HW,2013-06-23 08:21:00,
2013-06-23 03:26:00,75.6,69.1,29.66,WNW,293,1.1,1.1,80,0.00,,,0.00,WUHU216HW,2013-06-23 08:26:00,
2013-06-23 03:31:00,74.9,67.7,29.65,SSW,203,0.2,1.8,78,0.00,,,0.00,WUHU216HW,2013-06-23 08:31:00,
2013-06-23 03:36:00,74.4,67.9,29.65,WNW,293,0.2,1.8,80,0.00,,,0.00,WUHU216HW,2013-06-23 08:36:00,
2013-06-23 03:41:00,73.7,67.3,29.66,North,0,0.0,0.4,80,0.00,,,0.00,WUHU216HW,2013-06-23 08:41:00,
2013-06-23 03:46:00,73.1,67.1,29.66,NNW,338,0.0,0.4,81,0.00,,,0.00,WUHU216HW,2013-06-23 08:46:00,
2013-06-23 03:51:00,72.3,66.3,29.66,NNW,338,0.0,0.0,81,0.00,,,0.00,WUHU216HW,2013-06-23 08:51:00,
2013-06-23 03:56:00,71.9,66.2,29.67,NNW,338,0.0,0.0,82,0.00,,,0.00,WUHU216HW,2013-06-23 08:56:00,
2013-06-23 04:01:00,71.5,66.2,29.68,NNW,338,0.0,0.0,83,0.00,,,0.00,WUHU216HW,2013-06-23 09:01:00,
2013-06-23 04:06:00,71.2,65.9,29.68,NNW,338,0.0,0.0,83,0.00,,,0.00,WUHU216HW,2013-06-23 09:06:00,
2013-06-23 04:11:00,71.4,66.3,29.68,North,0,0.0,0.0,84,0.00,,,0.00,WUHU216HW,2013-06-23 09:11:00,
2013-06-23 04:16:00,71.6,66.9,29.69,North,0,0.2,0.2,85,0.00,,,0.00,WUHU216HW,2013-06-23 09:16:00,
2013-06-23 04:21:00,71.5,66.8,29.69,North,0,0.3,0.7,85,0.00,,,0.00,WUHU216HW,2013-06-23 09:21:00,
2013-06-23 04:26:00,71.6,67.3,29.70,SW,225,0.2,0.7,86,0.00,,,0.00,WUHU216HW,2013-06-23 09:26:00,
2013-06-23 04:31:00,71.9,67.6,29.71,NE,35,0.7,2.9,86,0.00,,,0.00,WUHU216HW,2013-06-23 09:31:00,
2013-06-23 04:36:00,72.8,68.0,29.71,NE,45,0.9,2.9,85,0.00,,,0.00,WUHU216HW,2013-06-23 09:36:00,
2013-06-23 04:41:00,73.4,68.0,29.71,East,90,2.2,2.5,83,0.00,,,0.00,WUHU216HW,2013-06-23 09:41:00,
2013-06-23 04:46:00,73.8,67.7,29.70,NNW,338,1.8,3.8,81,0.00,,,0.00,WUHU216HW,2013-06-23 09:46:00,
2013-06-23 04:51:00,73.7,67.6,29.71,NE,52,1.9,3.8,81,0.00,,,0.00,WUHU216HW,2013-06-23 09:51:00,
2013-06-23 04:56:00,73.6,67.5,29.71,East,90,2.5,4.3,81,0.00,,,0.00,WUHU216HW,2013-06-23 09:56:00,
2013-06-23 05:01:00,73.5,67.4,29.71,ENE,68,2.0,4.3,81,0.00,,,0.00,WUHU216HW,2013-06-23 10:01:00,
2013-06-23 05:06:00,73.4,67.0,29.71,East,90,2.2,4.3,80,0.00,,,0.00,WUHU216HW,2013-06-23 10:06:00,
2013-06-23 05:11:00,73.3,66.9,29.71,ESE,113,2.7,4.0,80,0.00,,,0.00,WUHU216HW,2013-06-23 10:11:00,
2013-06-23 05:16:00,73.4,66.7,29.71,East,80,2.6,4.0,79,0.00,,,0.00,WUHU216HW,2013-06-23 10:16:00,
2013-06-23 05:21:00,73.4,66.6,29.70,SW,225,1.6,4.7,79,0.00,,,0.00,WUHU216HW,2013-06-23 10:21:00,
2013-06-23 05:26:00,72.9,66.8,29.70,West,270,1.1,4.7,81,0.00,,,0.00,WUHU216HW,2013-06-23 10:26:00,
2013-06-23 05:31:00,72.8,66.7,29.70,East,81,2.6,4.3,81,0.00,,,0.00,WUHU216HW,2013-06-23 10:31:00,
2013-06-23 05:36:00,72.7,66.6,29.69,ESE,113,2.9,4.3,81,0.00,,,0.00,WUHU216HW,2013-06-23 10:36:00,
2013-06-23 05:41:00,72.8,66.7,29.69,NNE,23,2.9,4.9,81,0.00,,,0.00,WUHU216HW,2013-06-23 10:41:00,
2013-06-23 05:46:00,72.7,66.3,29.68,ENE,69,2.0,4.9,80,0.00,,,0.00,WUHU216HW,2013-06-23 10:46:00,
2013-06-23 05:51:00,72.4,66.0,29.68,ESE,113,2.5,3.4,80,0.00,,,0.00,WUHU216HW,2013-06-23 10:51:00,
2013-06-23 05:55:00,72.3,65.5,29.68,North,0,1.3,3.4,79,0.00,,,0.00,WUHU216HW,2013-06-23 10:55:00,
2013-06-23 06:00:00,72.2,65.1,29.68,SSW,203,2.9,3.1,78,0.00,,,0.00,WUHU216HW,2013-06-23 11:00:00,
2013-06-23 06:05:00,72.3,65.2,29.68,SSE,158,3.6,3.6,78,0.00,,,0.00,WUHU216HW,2013-06-23 11:05:00,
2013-06-23 06:10:00,72.2,65.1,29.68,SSE,161,1.3,3.6,78,0.00,,,0.00,WUHU216HW,2013-06-23 11:10:00,
2013-06-23 06:15:00,72.3,65.2,29.68,SE,131,1.1,3.6,78,0.00,,,0.00,WUHU216HW,2013-06-23 11:15:00,
2013-06-23 06:20:00,72.6,65.5,29.68,SSE,154,1.1,2.9,78,0.00,,,0.00,WUHU216HW,2013-06-23 11:20:00,
2013-06-23 06:25:00,72.8,65.7,29.68,SSW,207,1.8,3.1,78,0.00,,,0.00,WUHU216HW,2013-06-23 11:25:00,
2013-06-23 06:30:00,73.3,66.2,29.68,SE,136,1.6,3.4,78,0.00,,,0.00,WUHU216HW,2013-06-23 11:30:00,
2013-06-23 06:35:00,73.5,66.0,29.68,East,80,1.6,3.4,77,0.00,,,0.00,WUHU216HW,2013-06-23 11:35:00,
2013-06-23 06:40:00,73.8,66.0,29.68,North,0,1.8,2.9,76,0.00,,,0.00,WUHU216HW,2013-06-23 11:40:00,
2013-06-23 06:45:00,74.0,66.1,29.67,SE,135,2.0,2.9,76,0.00,,,0.00,WUHU216HW,2013-06-23 11:45:00,
2013-06-23 06:50:00,74.2,66.3,29.67,ENE,68,2.9,2.9,76,0.00,,,0.00,WUHU216HW,2013-06-23 11:50:00,
2013-06-23 06:55:00,74.7,66.4,29.67,East,90,1.3,2.9,75,0.00,,,0.00,WUHU216HW,2013-06-23 11:55:00,
2013-06-23 07:00:00,75.1,66.8,29.68,ENE,63,1.2,2.5,75,0.00,,,0.00,WUHU216HW,2013-06-23 12:00:00,
2013-06-23 07:05:00,75.4,66.8,29.68,SSW,203,2.5,3.8,74,0.00,,,0.00,WUHU216HW,2013-06-23 12:05:00,
2013-06-23 07:11:00,75.4,66.7,29.68,WSW,248,2.7,3.8,74,0.00,,,0.00,WUHU216HW,2013-06-23 12:11:00,
2013-06-23 07:16:00,75.4,66.7,29.68,SSW,202,1.8,4.7,74,0.00,,,0.00,WUHU216HW,2013-06-23 12:16:00,
2013-06-23 07:21:00,75.7,66.7,29.68,South,181,2.7,4.7,73,0.00,,,0.00,WUHU216HW,2013-06-23 12:21:00,
2013-06-23 07:26:00,76.1,66.7,29.67,West,270,1.6,4.5,72,0.00,,,0.00,WUHU216HW,2013-06-23 12:26:00,
2013-06-23 07:30:00,76.7,66.8,29.67,SE,135,2.5,2.9,71,0.00,,,0.00,WUHU216HW,2013-06-23 12:30:00,
2013-06-23 07:35:00,76.8,67.3,29.67,SE,135,1.6,3.4,72,0.00,,,0.00,WUHU216HW,2013-06-23 12:35:00,
2013-06-23 07:40:00,76.8,66.9,29.67,SSE,158,3.2,4.3,71,0.00,,,0.00,WUHU216HW,2013-06-23 12:40:00,
2013-06-23 07:45:00,77.1,67.3,29.67,SE,139,2.0,4.3,71,0.00,,,0.00,WUHU216HW,2013-06-23 12:45:00,
2013-06-23 07:50:00,77.3,67.0,29.67,SE,138,3.7,5.6,70,0.00,,,0.00,WUHU216HW,2013-06-23 12:50:00,
2013-06-23 07:55:00,76.8,66.9,29.68,SSE,155,3.2,5.6,71,0.00,,,0.00,WUHU216HW,2013-06-23 12:55:00,
2013-06-23 08:00:00,77.3,67.4,29.67,SSE,166,2.0,5.4,71,0.00,,,0.00,WUHU216HW,2013-06-23 13:00:00,
2013-06-23 08:05:00,77.5,66.8,29.67,South,175,3.7,4.9,69,0.00,,,0.00,WUHU216HW,2013-06-23 13:05:00,
2013-06-23 08:10:00,77.3,67.0,29.67,ESE,113,3.6,6.0,70,0.00,,,0.00,WUHU216HW,2013-06-23 13:10:00,
2013-06-23 08:15:00,77.8,67.5,29.67,West,270,2.5,6.0,70,0.00,,,0.00,WUHU216HW,2013-06-23 13:15:00,
2013-06-23 08:20:00,77.9,67.2,29.67,SE,136,3.9,4.9,69,0.00,,,0.00,WUHU216HW,2013-06-23 13:20:00,
2013-06-23 08:25:00,78.2,67.4,29.67,SW,225,3.8,4.7,69,0.00,,,0.00,WUHU216HW,2013-06-23 13:25:00,
2013-06-23 08:31:00,78.3,67.6,29.67,SE,135,2.7,4.5,69,0.00,,,0.00,WUHU216HW,2013-06-23 13:31:00,
2013-06-23 08:36:00,79.1,68.3,29.67,ENE,68,2.9,4.3,69,0.00,,,0.00,WUHU216HW,2013-06-23 13:36:00,
2013-06-23 08:41:00,79.8,68.1,29.67,SW,225,3.1,4.0,67,0.00,,,0.00,WUHU216HW,2013-06-23 13:41:00,
2013-06-23 08:46:00,79.7,67.6,29.68,East,90,3.4,6.0,66,0.00,,,0.00,WUHU216HW,2013-06-23 13:46:00,
2013-06-23 08:51:00,79.3,67.7,29.68,SW,224,2.2,6.0,67,0.00,,,0.00,WUHU216HW,2013-06-23 13:51:00,
2013-06-23 08:56:00,79.3,67.6,29.68,NE,45,3.6,6.3,67,0.00,,,0.00,WUHU216HW,2013-06-23 13:56:00,
2013-06-23 09:01:00,79.3,67.7,29.68,South,173,2.7,6.3,67,0.00,,,0.00,WUHU216HW,2013-06-23 14:01:00,
2013-06-23 09:06:00,80.0,68.4,29.68,ESE,113,1.8,5.4,67,0.00,,,0.00,WUHU216HW,2013-06-23 14:06:00,
2013-06-23 09:11:00,80.3,67.7,29.68,SSW,193,3.2,6.0,65,0.00,,,0.00,WUHU216HW,2013-06-23 14:11:00,
2013-06-23 09:16:00,80.2,69.0,29.68,SSE,158,2.0,7.8,68,0.00,,,0.00,WUHU216HW,2013-06-23 14:16:00,
2013-06-23 09:21:00,80.3,68.2,29.68,WSW,248,3.4,7.8,66,0.00,,,0.00,WUHU216HW,2013-06-23 14:21:00,
2013-06-23 09:26:00,79.9,67.3,29.68,SE,145,3.5,5.4,65,0.00,,,0.00,WUHU216HW,2013-06-23 14:26:00,
2013-06-23 09:31:00,80.2,69.0,29.68,South,182,1.7,5.4,68,0.00,,,0.00,WUHU216HW,2013-06-23 14:31:00,
2013-06-23 09:36:00,80.6,68.9,29.67,SSE,165,2.1,5.1,67,0.00,,,0.00,WUHU216HW,2013-06-23 14:36:00,
2013-06-23 09:41:00,80.8,69.1,29.67,ESE,113,3.4,4.3,67,0.00,,,0.00,WUHU216HW,2013-06-23 14:41:00,
2013-06-23 09:46:00,81.3,69.2,29.68,South,189,3.0,6.5,66,0.00,,,0.00,WUHU216HW,2013-06-23 14:46:00,
2013-06-23 09:51:00,81.6,69.4,29.68,South,173,2.5,6.5,66,0.00,,,0.00,WUHU216HW,2013-06-23 14:51:00,
2013-06-23 09:56:00,81.5,69.4,29.68,SE,135,1.8,4.0,66,0.00,,,0.00,WUHU216HW,2013-06-23 14:56:00,
2013-06-23 10:01:00,82.2,69.1,29.68,ESE,113,2.7,4.5,64,0.00,,,0.00,WUHU216HW,2013-06-23 15:01:00,
2013-06-23 10:06:00,82.3,69.7,29.68,South,189,2.3,4.5,65,0.00,,,0.00,WUHU216HW,2013-06-23 15:06:00,
2013-06-23 10:11:00,82.3,69.2,29.69,South,180,6.0,6.0,64,0.00,,,0.00,WUHU216HW,2013-06-23 15:11:00,
2013-06-23 10:16:00,81.9,68.8,29.69,ENE,68,4.9,6.7,64,0.00,,,0.00,WUHU216HW,2013-06-23 15:16:00,
2013-06-23 10:21:00,81.3,68.7,29.68,SSE,158,3.6,6.7,65,0.00,,,0.00,WUHU216HW,2013-06-23 15:21:00,
2013-06-23 10:26:00,80.9,68.8,29.68,SSE,156,3.0,5.6,66,0.00,,,0.00,WUHU216HW,2013-06-23 15:26:00,
2013-06-23 10:31:00,81.0,69.3,29.68,South,188,2.6,5.1,67,0.00,,,0.00,WUHU216HW,2013-06-23 15:31:00,
2013-06-23 10:36:00,81.8,69.7,29.69,SSE,161,2.8,4.0,66,0.00,,,0.00,WUHU216HW,2013-06-23 15:36:00,
2013-06-23 10:41:00,82.2,69.1,29.69,SSW,203,3.6,6.9,64,0.00,,,0.00,WUHU216HW,2013-06-23 15:41:00,
2013-06-23 10:46:00,82.3,69.3,29.69,East,100,3.8,6.9,64,0.00,,,0.00,WUHU216HW,2013-06-23 15:46:00,
2013-06-23 10:51:00,82.5,69.9,29.69,SSW,206,3.7,5.4,65,0.00,,,0.00,WUHU216HW,2013-06-23 15:51:00,
2013-06-23 10:56:00,81.9,69.2,29.69,SSW,203,3.4,5.4,65,0.00,,,0.00,WUHU216HW,2013-06-23 15:56:00,
2013-06-23 11:01:00,82.2,69.6,29.69,SE,135,2.0,5.4,65,0.00,,,0.00,WUHU216HW,2013-06-23 16:01:00,
2013-06-23 11:06:00,81.3,69.1,29.70,SSW,209,3.0,5.6,66,0.00,,,0.00,WUHU216HW,2013-06-23 16:06:00,
2013-06-23 11:11:00,80.6,69.4,29.70,SSW,198,2.1,5.6,68,0.00,,,0.00,WUHU216HW,2013-06-23 16:11:00,
2013-06-23 11:16:00,81.7,70.4,29.70,SSW,202,2.2,5.4,68,0.00,,,0.00,WUHU216HW,2013-06-23 16:16:00,
2013-06-23 11:21:00,83.3,70.6,29.71,SW,222,2.3,5.4,65,0.00,,,0.00,WUHU216HW,2013-06-23 16:21:00,
2013-06-23 11:26:00,83.1,70.5,29.70,WSW,248,3.6,4.0,65,0.00,,,0.00,WUHU216HW,2013-06-23 16:26:00,
2013-06-23 11:31:00,83.4,69.8,29.71,South,177,3.3,4.7,63,0.00,,,0.00,WUHU216HW,2013-06-23 16:31:00,
2013-06-23 11:36:00,82.7,69.6,29.70,South,180,3.4,4.7,64,0.00,,,0.00,WUHU216HW,2013-06-23 16:36:00,
2013-06-23 11:41:00,82.5,69.8,29.71,SE,131,2.9,5.4,65,0.00,,,0.00,WUHU216HW,2013-06-23 16:41:00,
2013-06-23 11:46:00,83.0,70.4,29.70,WSW,248,3.4,5.4,65,0.00,,,0.00,WUHU216HW,2013-06-23 16:46:00,
2013-06-23 11:51:00,82.6,70.8,29.70,WSW,248,1.8,3.8,67,0.00,,,0.00,WUHU216HW,2013-06-23 16:51:00,
2013-06-23 11:56:00,82.6,69.9,29.70,WSW,248,3.4,4.7,65,0.00,,,0.00,WUHU216HW,2013-06-23 16:56:00,
2013-06-23 11:57:00,82.6,69.0,29.70,South,180,5.8,5.8,63,0.00,,,0.00,WUHU216HW,2013-06-23 16:57:00,
2013-06-23 12:02:00,80.8,68.6,29.72,West,270,5.4,5.8,66,0.00,,,0.00,WUHU216HW,2013-06-23 17:02:00,
2013-06-23 12:07:00,77.8,64.0,29.72,SSW,192,3.7,7.6,62,0.00,,,0.00,WUHU216HW,2013-06-23 17:07:00,
2013-06-23 12:12:00,76.2,63.9,29.72,WNW,289,0.6,7.6,65,0.00,,,0.00,WUHU216HW,2013-06-23 17:12:00,
2013-06-23 12:17:00,74.9,63.5,29.72,SSW,202,1.1,3.4,67,0.00,,,0.00,WUHU216HW,2013-06-23 17:17:00,
2013-06-23 12:22:00,74.6,64.0,29.72,SSW,203,1.8,2.9,69,0.00,,,0.00,WUHU216HW,2013-06-23 17:22:00,
2013-06-23 12:27:00,74.9,63.4,29.72,SSW,203,1.3,2.9,67,0.00,,,0.00,WUHU216HW,2013-06-23 17:27:00,
2013-06-23 12:32:00,75.7,64.6,29.72,South,173,0.8,2.2,68,0.00,,,0.00,WUHU216HW,2013-06-23 17:32:00,
2013-06-23 12:37:00,76.3,64.8,29.73,South,183,0.7,2.9,67,0.00,,,0.00,WUHU216HW,2013-06-23 17:37:00,
2013-06-23 12:42:00,76.8,63.6,29.73,SW,225,2.9,5.4,63,0.00,,,0.00,WUHU216HW,2013-06-23 17:42:00,
2013-06-23 12:47:00,77.0,65.5,29.72,SE,129,0.8,5.4,67,0.00,,,0.00,WUHU216HW,2013-06-23 17:47:00,
2013-06-23 12:52:00,77.7,65.3,29.71,SE,135,0.7,2.9,65,0.00,,,0.00,WUHU216HW,2013-06-23 17:52:00,
2013-06-23 12:57:00,80.2,67.7,29.70,NNW,347,0.4,1.1,65,0.00,,,0.00,WUHU216HW,2013-06-23 17:57:00,
2013-06-23 13:02:00,82.9,68.4,29.71,South,190,0.6,1.8,61,0.00,,,0.00,WUHU216HW,2013-06-23 18:02:00,
2013-06-23 13:07:00,82.8,65.2,29.71,SW,226,1.4,2.2,55,0.00,,,0.00,WUHU216HW,2013-06-23 18:07:00,
2013-06-23 13:12:00,82.6,66.6,29.71,WNW,293,1.3,2.2,58,0.00,,,0.00,WUHU216HW,2013-06-23 18:12:00,
2013-06-23 13:17:00,84.2,68.6,29.71,NW,315,1.1,2.5,59,0.00,,,0.00,WUHU216HW,2013-06-23 18:17:00,
2013-06-23 13:22:00,85.3,67.6,29.71,West,270,1.8,3.4,55,0.00,,,0.00,WUHU216HW,2013-06-23 18:22:00,
2013-06-23 13:27:00,82.9,64.8,29.70,SSW,194,1.4,5.6,54,0.00,,,0.00,WUHU216HW,2013-06-23 18:27:00,
2013-06-23 13:32:00,82.8,66.3,29.70,SSW,203,2.0,5.6,57,0.00,,,0.00,WUHU216HW,2013-06-23 18:32:00,
2013-06-23 13:37:00,83.8,66.2,29.70,SW,223,1.6,5.1,55,0.00,,,0.00,WUHU216HW,2013-06-23 18:37:00,
2013-06-23 13:42:00,83.5,65.9,29.70,SSW,203,4.7,4.7,55,0.00,,,0.00,WUHU216HW,2013-06-23 18:42:00,
2013-06-23 13:47:00,81.3,63.9,29.69,WSW,245,2.0,4.7,55,0.00,,,0.00,WUHU216HW,2013-06-23 18:47:00,
2013-06-23 13:52:00,79.9,63.1,29.68,South,188,1.5,4.7,56,0.00,,,0.00,WUHU216HW,2013-06-23 18:52:00,
2013-06-23 13:57:00,78.7,63.4,29.67,West,262,0.5,4.3,59,0.00,,,0.00,WUHU216HW,2013-06-23 18:57:00,
2013-06-23 14:02:00,78.4,65.0,29.66,SW,225,1.6,2.9,63,0.00,,,0.00,WUHU216HW,2013-06-23 19:02:00,
2013-06-23 14:07:00,77.8,63.1,29.65,SSW,195,2.3,2.9,60,0.00,,,0.00,WUHU216HW,2013-06-23 19:07:00,
2013-06-23 14:12:00,77.1,61.9,29.63,SE,133,2.4,3.6,59,0.00,,,0.00,WUHU216HW,2013-06-23 19:12:00,
2013-06-23 14:17:00,76.7,62.0,29.60,SE,132,1.5,4.5,60,0.00,,,0.00,WUHU216HW,2013-06-23 19:17:00,
2013-06-23 14:22:00,76.2,62.1,29.59,South,187,1.9,4.7,61,0.00,,,0.00,WUHU216HW,2013-06-23 19:22:00,
2013-06-23 14:27:00,75.9,62.2,29.60,ESE,109,1.8,4.7,62,0.00,,,0.00,WUHU216HW,2013-06-23 19:27:00,
2013-06-23 14:32:00,75.8,63.4,29.60,WNW,293,1.3,3.4,65,0.00,,,0.00,WUHU216HW,2013-06-23 19:32:00,
2013-06-23 14:37:00,75.2,62.9,29.58,East,90,1.1,1.3,65,0.00,,,0.00,WUHU216HW,2013-06-23 19:37:00,
2013-06-23 14:42:00,75.4,62.7,29.58,SSW,203,2.9,4.0,64,0.00,,,0.00,WUHU216HW,2013-06-23 19:42:00,
2013-06-23 14:47:00,75.7,62.4,29.57,East,90,2.2,4.0,63,0.00,,,0.00,WUHU216HW,2013-06-23 19:47:00,
2013-06-23 14:52:00,76.0,62.3,29.57,SSE,152,0.9,3.1,62,0.00,,,0.00,WUHU216HW,2013-06-23 19:52:00,
2013-06-23 14:57:00,76.6,65.9,29.58,South,180,1.1,2.9,69,0.00,,,0.00,WUHU216HW,2013-06-23 19:57:00,
2013-06-23 15:02:00,76.9,65.4,29.58,SE,135,0.7,1.6,67,0.00,,,0.00,WUHU216HW,2013-06-23 20:02:00,
2013-06-23 15:07:00,77.0,63.7,29.58,South,182,1.5,4.7,63,0.00,,,0.00,WUHU216HW,2013-06-23 20:07:00,
2013-06-23 15:12:00,77.4,63.6,29.58,SSW,210,1.4,4.7,62,0.00,,,0.00,WUHU216HW,2013-06-23 20:12:00,
2013-06-23 15:17:00,77.4,64.1,29.58,SSW,203,1.8,3.4,63,0.00,,,0.00,WUHU216HW,2013-06-23 20:17:00,
2013-06-23 15:22:00,77.9,64.5,29.58,SSE,158,1.1,3.4,63,0.00,,,0.00,WUHU216HW,2013-06-23 20:22:00,
2013-06-23 15:27:00,78.6,64.3,29.58,SSE,154,2.5,3.1,61,0.00,,,0.00,WUHU216HW,2013-06-23 20:27:00,
2013-06-23 15:32:00,78.7,64.8,29.58,SSW,203,4.0,5.4,62,0.00,,,0.00,WUHU216HW,2013-06-23 20:32:00,
2013-06-23 15:37:00,78.7,64.9,29.58,WSW,248,1.8,5.4,62,0.00,,,0.00,WUHU216HW,2013-06-23 20:37:00,
2013-06-23 15:42:00,79.0,65.2,29.58,South,186,1.9,4.3,62,0.00,,,0.00,WUHU216HW,2013-06-23 20:42:00,
2013-06-23 15:47:00,79.1,65.2,29.58,WSW,248,2.5,4.0,62,0.00,,,0.00,WUHU216HW,2013-06-23 20:47:00,
2013-06-23 15:52:00,79.1,65.3,29.59,SSW,192,2.7,4.0,62,0.00,,,0.00,WUHU216HW,2013-06-23 20:52:00,
2013-06-23 15:57:00,79.6,66.1,29.59,SW,225,2.5,3.8,63,0.00,,,0.00,WUHU216HW,2013-06-23 20:57:00,
2013-06-23 16:02:00,80.1,66.2,29.59,SSW,193,2.4,4.0,62,0.00,,,0.00,WUHU216HW,2013-06-23 21:02:00,
2013-06-23 16:07:00,80.6,66.6,29.58,ESE,113,1.8,4.0,62,0.00,,,0.00,WUHU216HW,2013-06-23 21:07:00,
2013-06-23 16:12:00,80.8,67.3,29.59,ESE,121,0.7,3.8,63,0.00,,,0.00,WUHU216HW,2013-06-23 21:12:00,
2013-06-23 16:17:00,82.0,67.0,29.59,West,270,1.8,3.8,60,0.00,,,0.00,WUHU216HW,2013-06-23 21:17:00,
2013-06-23 16:22:00,83.0,68.0,29.60,SSE,158,1.4,4.0,60,0.00,,,0.00,WUHU216HW,2013-06-23 21:22:00,
2013-06-23 16:27:00,83.7,66.6,29.60,ESE,113,3.6,4.3,56,0.00,,,0.00,WUHU216HW,2013-06-23 21:27:00,
2013-06-23 16:32:00,83.3,66.3,29.60,SSE,160,3.5,6.0,56,0.00,,,0.00,WUHU216HW,2013-06-23 21:32:00,
2013-06-23 16:37:00,82.3,66.8,29.59,SSW,200,2.2,6.0,59,0.00,,,0.00,WUHU216HW,2013-06-23 21:37:00,
2013-06-23 16:42:00,81.6,66.7,29.59,ESE,110,1.5,4.9,60,0.00,,,0.00,WUHU216HW,2013-06-23 21:42:00,
2013-06-23 16:47:00,82.1,68.1,29.60,WSW,248,1.1,2.9,62,0.00,,,0.00,WUHU216HW,2013-06-23 21:47:00,
2013-06-23 16:52:00,81.9,67.0,29.60,West,270,4.5,4.5,60,0.00,,,0.00,WUHU216HW,2013-06-23 21:52:00,
2013-06-23 16:57:00,81.6,67.1,29.60,WSW,248,1.8,4.5,61,0.00,,,0.00,WUHU216HW,2013-06-23 21:57:00,
2013-06-23 17:02:00,81.4,66.4,29.61,SW,225,1.8,4.5,60,0.00,,,0.00,WUHU216HW,2013-06-23 22:02:00,
2013-06-23 17:07:00,81.2,66.8,29.61,South,179,0.8,2.9,61,0.00,,,0.00,WUHU216HW,2013-06-23 22:07:00,
2013-06-23 17:12:00,81.7,68.2,29.61,SSW,206,0.6,2.9,63,0.00,,,0.00,WUHU216HW,2013-06-23 22:12:00,
2013-06-23 17:17:00,81.8,66.9,29.61,SSW,206,0.8,2.7,60,0.00,,,0.00,WUHU216HW,2013-06-23 22:17:00,
2013-06-23 17:22:00,82.8,70.1,29.62,WSW,258,0.7,2.7,65,0.00,,,0.00,WUHU216HW,2013-06-23 22:22:00,
2013-06-23 17:27:00,82.9,67.9,29.62,SSW,203,1.3,2.7,60,0.00,,,0.00,WUHU216HW,2013-06-23 22:27:00,
2013-06-23 17:32:00,82.9,66.9,29.62,South,174,1.6,3.4,58,0.00,,,0.00,WUHU216HW,2013-06-23 22:32:00,
2013-06-23 17:37:00,83.0,67.0,29.63,SSE,158,1.3,3.4,58,0.00,,,0.00,WUHU216HW,2013-06-23 22:37:00,
2013-06-23 17:42:00,82.2,65.7,29.63,South,169,1.4,4.0,57,0.00,,,0.00,WUHU216HW,2013-06-23 22:42:00,
2013-06-23 17:47:00,81.7,64.8,29.62,SE,137,2.5,4.3,56,0.00,,,0.00,WUHU216HW,2013-06-23 22:47:00,
2013-06-23 17:52:00,81.8,66.4,29.63,SW,232,0.7,4.3,59,0.00,,,0.00,WUHU216HW,2013-06-23 22:52:00,
2013-06-23 17:57:00,81.5,66.0,29.64,WNW,293,0.9,2.0,59,0.00,,,0.00,WUHU216HW,2013-06-23 22:57:00,
2013-06-23 18:02:00,80.8,65.4,29.64,SE,125,1.5,2.2,59,0.00,,,0.00,WUHU216HW,2013-06-23 23:02:00,
2013-06-23 18:07:00,80.9,66.0,29.64,SW,230,0.7,2.2,60,0.00,,,0.00,WUHU216HW,2013-06-23 23:07:00,
2013-06-23 18:12:00,80.8,66.4,29.64,SSW,203,1.1,2.0,61,0.00,,,0.00,WUHU216HW,2013-06-23 23:12:00,
2013-06-23 18:17:00,80.5,66.1,29.65,WSW,248,2.0,2.5,61,0.00,,,0.00,WUHU216HW,2013-06-23 23:17:00,
2013-06-23 18:22:00,80.6,66.2,29.65,WSW,257,1.0,2.9,61,0.00,,,0.00,WUHU216HW,2013-06-23 23:22:00,
2013-06-23 18:27:00,80.5,66.6,29.65,SW,225,0.7,2.9,62,0.00,,,0.00,WUHU216HW,2013-06-23 23:27:00,
2013-06-23 18:32:00,80.4,66.4,29.66,SW,225,3.1,3.4,62,0.00,,,0.00,WUHU216HW,2013-06-23 23:32:00,
2013-06-23 18:37:00,80.2,67.2,29.66,West,270,1.1,3.4,64,0.00,,,0.00,WUHU216HW,2013-06-23 23:37:00,
2013-06-23 18:42:00,80.2,66.8,29.66,SSW,203,0.7,2.9,63,0.00,,,0.00,WUHU216HW,2013-06-23 23:42:00,
2013-06-23 18:47:00,80.1,66.6,29.66,SSW,200,1.1,2.9,63,0.00,,,0.00,WUHU216HW,2013-06-23 23:47:00,
2013-06-23 18:52:00,80.0,66.5,29.66,SW,223,0.7,2.5,63,0.00,,,0.00,WUHU216HW,2013-06-23 23:52:00,
2013-06-23 18:57:00,79.8,66.4,29.66,SSE,166,1.1,2.7,63,0.00,,,0.00,WUHU216HW,2013-06-23 23:57:00,
2013-06-23 19:02:00,79.7,66.3,29.66,ENE,68,2.2,2.7,63,0.00,,,0.00,WUHU216HW,2013-06-24 00:02:00,
2013-06-23 19:07:00,79.7,66.7,29.66,SW,215,1.2,2.7,64,0.00,,,0.00,WUHU216HW,2013-06-24 00:07:00,
2013-06-23 19:12:00,79.4,66.4,29.66,SSE,158,1.1,2.2,64,0.00,,,0.00,WUHU216HW,2013-06-24 00:12:00,
2013-06-23 19:17:00,79.4,66.5,29.66,SSW,203,1.3,1.8,64,0.00,,,0.00,WUHU216HW,2013-06-24 00:17:00,
2013-06-23 19:22:00,79.7,67.2,29.66,SE,135,0.9,2.0,65,0.00,,,0.00,WUHU216HW,2013-06-24 00:22:00,
2013-06-23 19:27:00,79.6,67.1,29.66,SSE,159,1.1,2.0,65,0.00,,,0.00,WUHU216HW,2013-06-24 00:27:00,
2013-06-23 19:32:00,79.5,67.4,29.67,SSW,198,1.5,2.0,66,0.00,,,0.00,WUHU216HW,2013-06-24 00:32:00,
2013-06-23 19:37:00,79.3,67.7,29.67,SSE,154,0.5,2.0,67,0.00,,,0.00,WUHU216HW,2013-06-24 00:37:00,
2013-06-23 19:42:00,79.3,68.5,29.67,South,180,0.5,1.8,69,0.00,,,0.00,WUHU216HW,2013-06-24 00:42:00,
2013-06-23 19:46:00,79.2,69.2,29.67,SSE,167,0.5,1.8,71,0.00,,,0.00,WUHU216HW,2013-06-24 00:46:00,
2013-06-23 19:51:00,79.1,69.5,29.67,SSE,158,1.1,2.2,72,0.00,,,0.00,WUHU216HW,2013-06-24 00:51:00,
2013-06-23 19:56:00,78.8,69.6,29.67,SW,215,1.2,3.4,73,0.00,,,0.00,WUHU216HW,2013-06-24 00:56:00,
2013-06-23 20:01:00,78.7,70.4,29.67,SSW,203,1.3,3.4,75,0.00,,,0.00,WUHU216HW,2013-06-24 01:01:00,
2013-06-23 20:06:00,78.4,70.4,29.67,SSW,203,2.0,2.0,76,0.00,,,0.00,WUHU216HW,2013-06-24 01:06:00,
2013-06-23 20:11:00,78.3,70.3,29.66,SE,135,0.9,2.0,76,0.00,,,0.00,WUHU216HW,2013-06-24 01:11:00,
2013-06-23 20:16:00,78.2,70.2,29.67,SSW,198,0.4,2.0,76,0.00,,,0.00,WUHU216HW,2013-06-24 01:16:00,
2013-06-23 20:21:00,78.0,70.0,29.67,SSE,165,1.1,2.0,76,0.00,,,0.00,WUHU216HW,2013-06-24 01:21:00,
2013-06-23 20:26:00,77.7,69.8,29.67,WSW,248,1.1,2.2,76,0.00,,,0.00,WUHU216HW,2013-06-24 01:26:00,
2013-06-23 20:31:00,77.6,69.7,29.67,South,184,1.2,2.2,76,0.00,,,0.00,WUHU216HW,2013-06-24 01:31:00,
2013-06-23 20:36:00,77.4,69.8,29.66,SE,135,1.1,1.8,77,0.00,,,0.00,WUHU216HW,2013-06-24 01:36:00,
2013-06-23 20:41:00,77.1,69.5,29.67,SW,219,0.9,2.0,77,0.00,,,0.00,WUHU216HW,2013-06-24 01:41:00,
2013-06-23 20:46:00,77.0,69.8,29.67,SSE,149,0.6,2.0,78,0.00,,,0.00,WUHU216HW,2013-06-24 01:46:00,
2013-06-23 20:51:00,76.8,69.6,29.68,South,188,0.3,2.2,78,0.00,,,0.00,WUHU216HW,2013-06-24 01:51:00,
2013-06-23 20:56:00,76.7,69.9,29.68,SE,135,1.1,2.2,79,0.00,,,0.00,WUHU216HW,2013-06-24 01:56:00,
2013-06-23 21:01:00,76.8,70.0,29.67,SE,135,1.8,3.4,79,0.00,,,0.00,WUHU216HW,2013-06-24 02:01:00,
2013-06-23 21:06:00,76.7,70.2,29.67,South,180,1.8,3.4,80,0.00,,,0.00,WUHU216HW,2013-06-24 02:06:00,
2013-06-23 21:11:00,76.8,69.9,29.67,SW,215,0.8,1.8,79,0.00,,,0.00,WUHU216HW,2013-06-24 02:11:00,
2013-06-23 21:16:00,76.6,69.7,29.67,SE,135,0.4,1.8,79,0.00,,,0.00,WUHU216HW,2013-06-24 02:16:00,
2013-06-23 21:21:00,76.5,70.0,29.67,South,189,1.0,2.0,80,0.00,,,0.00,WUHU216HW,2013-06-24 02:21:00,
2013-06-23 21:26:00,76.6,70.1,29.67,SE,146,0.6,2.0,80,0.00,,,0.00,WUHU216HW,2013-06-24 02:26:00,
2013-06-23 21:31:00,76.3,69.8,29.67,South,189,0.5,1.3,80,0.00,,,0.00,WUHU216HW,2013-06-24 02:31:00,
2013-06-23 21:36:00,76.4,70.2,29.67,SSW,205,0.6,1.1,81,0.00,,,0.00,WUHU216HW,2013-06-24 02:36:00,
2013-06-23 21:41:00,76.2,70.1,29.67,SSW,197,0.8,1.3,81,0.00,,,0.00,WUHU216HW,2013-06-24 02:41:00,
2013-06-23 21:46:00,76.3,70.5,29.68,SSW,209,0.9,1.3,82,0.00,,,0.00,WUHU216HW,2013-06-24 02:46:00,
2013-06-23 21:51:00,76.4,70.3,29.68,SSE,158,0.4,1.3,81,0.00,,,0.00,WUHU216HW,2013-06-24 02:51:00,
2013-06-23 21:56:00,76.4,70.3,29.68,South,190,0.5,1.6,81,0.00,,,0.00,WUHU216HW,2013-06-24 02:56:00,
2013-06-23 22:01:00,76.5,70.3,29.68,ESE,113,0.9,2.0,81,0.00,,,0.00,WUHU216HW,2013-06-24 03:01:00,
2013-06-23 22:06:00,76.6,70.4,29.68,SSW,203,2.2,2.2,81,0.00,,,0.00,WUHU216HW,2013-06-24 03:06:00,
2013-06-23 22:11:00,76.4,70.3,29.68,SSW,201,1.3,2.2,81,0.00,,,0.00,WUHU216HW,2013-06-24 03:11:00,
2013-06-23 22:16:00,76.3,69.8,29.69,SSE,153,1.4,2.2,80,0.00,,,0.00,WUHU216HW,2013-06-24 03:16:00,
2013-06-23 22:21:00,76.4,70.3,29.69,SSW,203,0.9,2.0,81,0.00,,,0.00,WUHU216HW,2013-06-24 03:21:00,
2013-06-23 22:26:00,76.5,70.3,29.69,SSW,209,0.8,2.0,81,0.00,,,0.00,WUHU216HW,2013-06-24 03:26:00,
2013-06-23 22:31:00,76.3,70.6,29.69,SSW,203,1.8,2.5,82,0.00,,,0.00,WUHU216HW,2013-06-24 03:31:00,
2013-06-23 22:36:00,76.2,70.1,29.69,South,180,1.8,2.5,81,0.00,,,0.00,WUHU216HW,2013-06-24 03:36:00,
2013-06-23 22:41:00,76.3,70.2,29.69,South,184,0.7,1.8,81,0.00,,,0.00,WUHU216HW,2013-06-24 03:41:00,
2013-06-23 22:46:00,76.3,70.1,29.69,SSW,213,0.4,1.8,81,0.00,,,0.00,WUHU216HW,2013-06-24 03:46:00,
2013-06-23 22:51:00,76.3,70.5,29.69,SSW,203,1.3,1.8,82,0.00,,,0.00,WUHU216HW,2013-06-24 03:51:00,
2013-06-23 22:56:00,76.4,70.2,29.69,ESE,113,0.0,1.8,81,0.00,,,0.00,WUHU216HW,2013-06-24 03:56:00,
2013-06-23 23:01:00,76.2,70.5,29.70,SSW,209,0.9,1.6,82,0.00,,,0.00,WUHU216HW,2013-06-24 04:01:00,
2013-06-23 23:06:00,76.3,70.5,29.70,WSW,250,0.9,1.3,82,0.00,,,0.00,WUHU216HW,2013-06-24 04:06:00,
2013-06-23 23:11:00,76.4,70.9,29.71,SW,225,1.1,1.3,83,0.00,,,0.00,WUHU216HW,2013-06-24 04:11:00,
2013-06-23 23:16:00,76.4,71.0,29.70,SE,135,2.5,2.7,83,0.00,,,0.00,WUHU216HW,2013-06-24 04:16:00,
2013-06-23 23:21:00,76.5,71.0,29.70,WSW,248,0.9,2.7,83,0.00,,,0.00,WUHU216HW,2013-06-24 04:21:00,
2013-06-23 23:26:00,76.5,70.7,29.70,SE,135,0.4,2.5,82,0.00,,,0.00,WUHU216HW,2013-06-24 04:26:00,
2013-06-23 23:31:00,76.4,70.6,29.70,SW,214,0.5,1.1,82,0.00,,,0.00,WUHU216HW,2013-06-24 04:31:00,
2013-06-23 23:36:00,76.4,71.0,29.70,SW,221,1.1,1.8,83,0.00,,,0.00,WUHU216HW,2013-06-24 04:36:00,
2013-06-23 23:41:00,76.5,71.0,29.69,SSE,164,0.8,1.8,83,0.00,,,0.00,WUHU216HW,2013-06-24 04:41:00,
2013-06-23 23:46:00,76.5,71.1,29.69,SW,225,1.1,2.5,83,0.00,,,0.00,WUHU216HW,2013-06-24 04:46:00,
2013-06-23 23:51:00,76.8,71.3,29.68,ESE,113,3.4,3.4,83,0.00,,,0.00,WUHU216HW,2013-06-24 04:51:00,
2013-06-23 23:56:00,76.6,71.1,29.68,SSW,207,1.0,3.4,83,0.00,,,0.00,WUHU216HW,2013-06-24 04:56:00,